Terminal Aerodrome Forecast
Issued by NWS Omaha/Valley, NE

Home | Current Version | Previous Version | Text Only | Print | Product List | Glossary On
Versions: 1 2 3 4 5 6 7 8 9 10 11 12 13 14 15 16 17 18 19 20 21 22 23 24 25 26 27 28 29 30 31 32 33 34 35 36 37
000
FTUS43 KOAX 031720
TAFOMA
TAF
KOMA 031720Z 0318/0418 32022G32KT P6SM SCT015 OVC025
      TEMPO 0318/0321 BKN015
     FM032200 34020G30KT P6SM BKN035
     FM040100 34015G23KT P6SM BKN035
     FM040600 34013KT P6SM BKN040 BKN250
     FM041200 34006KT P6SM BKN250=

USA.gov is the U.S. government's official web portal to all federal, state and local government web resources and services.